createdAt,value
2022-08-19T00:02:05.814Z,54.20
2022-08-19T00:04:37.702Z,54.90
2022-08-19T00:07:07.871Z,54.40
2022-08-19T00:09:36.827Z,54.40
2022-08-19T00:12:07.377Z,54.60
2022-08-19T00:14:36.188Z,54.70
2022-08-19T00:17:07.442Z,54.90
2022-08-19T00:19:38.112Z,55.00
2022-08-19T00:22:07.439Z,55.00
2022-08-19T00:24:39.392Z,55.10
2022-08-19T00:27:24.987Z,55.20
2022-08-19T00:29:53.978Z,55.30
2022-08-19T00:32:23.050Z,55.40
2022-08-19T00:34:54.499Z,55.50
2022-08-19T00:37:24.741Z,55.40
2022-08-19T00:39:54.863Z,55.40
2022-08-19T00:42:27.003Z,55.50
2022-08-19T00:44:55.899Z,55.50
2022-08-19T00:47:24.740Z,55.50
2022-08-19T00:50:00.200Z,55.70
2022-08-19T00:52:35.577Z,55.80
2022-08-19T00:55:07.492Z,55.90
2022-08-19T00:57:45.626Z,55.90
2022-08-19T01:00:20.338Z,55.80
2022-08-19T01:02:49.320Z,55.90
2022-08-19T01:05:24.916Z,56.60
2022-08-19T01:07:55.556Z,56.00
2022-08-19T01:10:30.711Z,56.00
2022-08-19T01:13:05.385Z,55.90
2022-08-19T01:15:45.608Z,56.00
2022-08-19T01:18:18.755Z,55.70
2022-08-19T01:20:48.109Z,55.80
2022-08-19T01:23:18.895Z,55.80
2022-08-19T01:25:53.104Z,55.70
2022-08-19T01:28:33.894Z,55.70
2022-08-19T01:31:08.540Z,55.70
2022-08-19T01:33:37.300Z,55.90
2022-08-19T01:36:10.284Z,55.80
2022-08-19T01:38:44.298Z,55.80
2022-08-19T01:41:14.260Z,55.90
2022-08-19T01:44:13.912Z,56.00
2022-08-19T01:46:32.360Z,56.10
2022-08-19T01:49:02.025Z,56.20
2022-08-19T01:51:31.274Z,56.30
2022-08-19T01:54:11.052Z,56.40
2022-08-19T01:56:40.190Z,56.40
2022-08-19T01:59:16.644Z,56.50
2022-08-19T02:01:45.628Z,56.60
2022-08-19T02:04:15.556Z,56.70
2022-08-19T02:06:44.239Z,56.70
2022-08-19T02:09:14.340Z,56.60
2022-08-19T02:11:44.542Z,56.70
2022-08-19T02:14:13.113Z,56.70
2022-08-19T02:16:41.879Z,56.60
2022-08-19T02:19:11.402Z,56.70
2022-08-19T02:21:39.968Z,56.60
2022-08-19T02:24:09.186Z,56.70
2022-08-19T02:26:39.084Z,56.60
2022-08-19T02:29:10.472Z,56.60
2022-08-19T02:31:39.026Z,56.60
2022-08-19T02:34:07.609Z,56.50
2022-08-19T02:36:36.575Z,56.50
2022-08-19T02:39:10.719Z,56.50
2022-08-19T02:41:40.864Z,56.50
2022-08-19T02:44:29.824Z,56.40
2022-08-19T02:46:58.672Z,56.50
2022-08-19T02:49:27.227Z,56.40
2022-08-19T02:51:56.022Z,56.50
2022-08-19T02:54:24.901Z,56.50
2022-08-19T02:56:54.766Z,56.40
2022-08-19T02:59:23.677Z,56.40
2022-08-19T03:01:52.496Z,56.40
2022-08-19T03:04:22.340Z,56.40
2022-08-19T03:06:51.441Z,56.50
2022-08-19T03:09:22.301Z,56.40
2022-08-19T03:11:52.686Z,56.40
2022-08-19T03:14:24.194Z,56.50
2022-08-19T03:16:54.334Z,57.20
2022-08-19T03:19:23.572Z,56.50
2022-08-19T03:21:53.389Z,56.40
2022-08-19T03:24:23.245Z,56.40
2022-08-19T03:26:58.594Z,56.50
2022-08-19T03:29:32.003Z,56.50
2022-08-19T03:32:04.921Z,56.60
2022-08-19T03:34:36.166Z,56.40
2022-08-19T03:37:09.169Z,56.40
2022-08-19T03:39:39.990Z,56.60
2022-08-19T03:42:47.863Z,56.50
2022-08-19T03:44:59.564Z,56.50
2022-08-19T03:47:28.493Z,56.60
2022-08-19T03:49:57.031Z,56.50
2022-08-19T03:52:25.614Z,56.40
2022-08-19T03:54:54.391Z,56.40
2022-08-19T03:57:24.432Z,56.50
2022-08-19T04:00:04.072Z,56.50
2022-08-19T04:02:42.914Z,56.50
2022-08-19T04:05:29.515Z,56.50
2022-08-19T04:07:59.881Z,56.50
2022-08-19T04:10:29.261Z,56.60
2022-08-19T04:12:58.004Z,56.50
2022-08-19T04:15:29.844Z,56.50
2022-08-19T04:17:58.645Z,56.50
2022-08-19T04:20:27.194Z,56.50
2022-08-19T04:22:55.929Z,56.30
2022-08-19T04:25:24.710Z,56.30
2022-08-19T04:27:53.340Z,56.20
2022-08-19T04:30:23.571Z,56.10
2022-08-19T04:32:53.767Z,56.30
2022-08-19T04:35:24.926Z,56.20
2022-08-19T04:37:53.852Z,56.10
2022-08-19T04:40:42.397Z,56.30
2022-08-19T04:43:16.683Z,56.00
2022-08-19T04:45:45.741Z,56.10
2022-08-19T04:48:26.295Z,55.80
2022-08-19T04:50:59.426Z,56.00
2022-08-19T04:53:37.468Z,55.50
2022-08-19T04:56:13.547Z,55.60
2022-08-19T04:58:46.135Z,55.40
2022-08-19T05:01:16.511Z,55.50
2022-08-19T05:03:46.879Z,55.30
2022-08-19T05:06:18.939Z,55.60
2022-08-19T05:08:48.545Z,55.60
2022-08-19T05:11:26.235Z,55.40
2022-08-19T05:13:55.995Z,55.30
2022-08-19T05:16:27.480Z,55.30
2022-08-19T05:19:16.187Z,55.40
2022-08-19T05:22:03.497Z,55.30
2022-08-19T05:24:34.553Z,55.60
2022-08-19T05:27:06.553Z,55.40
2022-08-19T05:29:36.657Z,55.40
2022-08-19T05:32:09.281Z,55.40
2022-08-19T05:34:40.518Z,55.40
2022-08-19T05:37:10.005Z,55.90
2022-08-19T05:39:41.528Z,55.50
2022-08-19T05:42:13.213Z,55.60
2022-08-19T05:44:45.472Z,55.70
2022-08-19T05:47:16.167Z,55.50
2022-08-19T05:49:46.393Z,55.60
2022-08-19T05:52:18.975Z,55.50
2022-08-19T05:54:52.009Z,55.30
2022-08-19T05:57:21.691Z,55.50
2022-08-19T05:59:52.684Z,55.60
2022-08-19T06:02:22.014Z,55.90
2022-08-19T06:04:51.926Z,56.10
2022-08-19T06:07:21.221Z,55.50
2022-08-19T06:10:00.667Z,56.00
2022-08-19T06:12:34.036Z,55.50
2022-08-19T06:15:05.722Z,55.30
2022-08-19T06:17:35.879Z,55.10
2022-08-19T06:20:09.779Z,54.90
2022-08-19T06:22:40.937Z,55.10
2022-08-19T06:25:11.189Z,55.00
2022-08-19T06:27:58.661Z,54.70
2022-08-19T06:30:29.731Z,54.20
2022-08-19T06:32:58.504Z,54.60
2022-08-19T06:35:30.504Z,54.10
2022-08-19T06:37:59.718Z,54.20
2022-08-19T06:40:28.564Z,54.10
2022-08-19T06:42:57.386Z,53.80
2022-08-19T06:45:34.581Z,54.00
2022-08-19T06:48:05.172Z,53.70
2022-08-19T06:50:35.102Z,53.80
2022-08-19T06:53:08.122Z,53.80
2022-08-19T06:55:36.676Z,54.10
2022-08-19T06:58:06.243Z,53.50
2022-08-19T07:00:35.784Z,53.70
2022-08-19T07:03:08.490Z,53.30
2022-08-19T07:05:45.724Z,53.00
2022-08-19T07:08:15.242Z,52.50
2022-08-19T07:10:49.005Z,52.10
2022-08-19T07:13:17.564Z,51.60
2022-08-19T07:15:48.004Z,51.10
2022-08-19T07:18:17.018Z,50.70
2022-08-19T07:20:47.112Z,50.50
2022-08-19T07:23:16.666Z,50.20
2022-08-19T07:25:53.186Z,50.30
2022-08-19T07:28:24.286Z,50.70
2022-08-19T07:30:53.938Z,49.70
2022-08-19T07:33:24.368Z,50.10
2022-08-19T07:35:57.936Z,50.10
2022-08-19T07:38:26.911Z,49.30
2022-08-19T07:40:55.938Z,48.70
2022-08-19T07:43:33.438Z,48.60
2022-08-19T07:46:04.615Z,47.80
2022-08-19T07:48:33.627Z,46.90
2022-08-19T07:51:08.540Z,46.00
2022-08-19T07:53:40.047Z,45.30
2022-08-19T07:56:08.808Z,44.70
2022-08-19T07:58:43.008Z,44.40
2022-08-19T08:01:15.247Z,44.50
2022-08-19T08:04:02.165Z,44.20
2022-08-19T08:06:49.821Z,44.00
2022-08-19T08:09:26.228Z,44.40
2022-08-19T08:12:01.977Z,44.00
2022-08-19T08:14:39.945Z,44.70
2022-08-19T08:17:13.802Z,43.60
2022-08-19T08:19:44.189Z,43.90
2022-08-19T08:22:33.260Z,43.30
2022-08-19T08:25:06.847Z,43.00
2022-08-19T08:27:40.550Z,42.40
2022-08-19T08:30:11.878Z,41.80
2022-08-19T08:32:42.461Z,41.90
2022-08-19T08:35:17.622Z,41.40
2022-08-19T08:37:51.300Z,41.80
2022-08-19T08:40:32.885Z,41.20
2022-08-19T08:43:11.629Z,41.30
2022-08-19T08:45:53.467Z,41.00
2022-08-19T08:48:34.760Z,41.70
2022-08-19T08:51:09.651Z,40.40
2022-08-19T08:53:42.559Z,40.50
2022-08-19T08:56:14.060Z,39.80
2022-08-19T08:59:00.714Z,39.90
2022-08-19T09:01:30.822Z,40.20
2022-08-19T09:04:02.777Z,39.70
2022-08-19T09:06:40.961Z,39.70
2022-08-19T09:09:20.855Z,39.10
2022-08-19T09:12:06.726Z,37.80
2022-08-19T09:14:50.773Z,37.30
2022-08-19T09:17:29.167Z,36.50
2022-08-19T09:20:03.450Z,35.90
2022-08-19T09:22:32.445Z,36.00
2022-08-19T09:25:02.761Z,36.30
2022-08-19T09:27:42.781Z,36.10
2022-08-19T09:30:27.579Z,36.00
2022-08-19T09:32:57.376Z,36.40
2022-08-19T09:35:30.644Z,36.30
2022-08-19T09:38:01.464Z,37.00
2022-08-19T09:40:37.731Z,36.40
2022-08-19T09:43:09.915Z,35.90
2022-08-19T09:45:40.091Z,36.40
2022-08-19T09:48:09.601Z,36.30
2022-08-19T09:50:51.865Z,36.30
2022-08-19T09:53:25.102Z,36.50
2022-08-19T09:55:57.841Z,36.60
2022-08-19T09:58:28.820Z,36.00
2022-08-19T10:00:58.508Z,36.50
2022-08-19T10:03:30.241Z,35.40
2022-08-19T10:06:01.627Z,35.00
2022-08-19T10:08:33.931Z,35.50
2022-08-19T10:11:27.289Z,35.30
2022-08-19T10:13:55.142Z,35.50
2022-08-19T10:16:30.342Z,34.80
2022-08-19T10:19:00.334Z,35.00
2022-08-19T10:21:36.304Z,34.70
2022-08-19T10:24:09.372Z,34.10
2022-08-19T10:26:46.218Z,35.00
2022-08-19T10:29:32.544Z,34.90
2022-08-19T10:32:03.496Z,34.80
2022-08-19T10:34:34.331Z,35.10
2022-08-19T10:37:03.832Z,35.60
2022-08-19T10:39:43.429Z,36.00
2022-08-19T10:42:14.743Z,35.40
2022-08-19T10:44:43.820Z,36.40
2022-08-19T10:47:17.914Z,36.90
2022-08-19T10:50:13.316Z,37.50
2022-08-19T10:52:49.249Z,38.10
2022-08-19T10:55:41.028Z,37.10
2022-08-19T10:58:16.297Z,38.20
2022-08-19T11:00:52.710Z,38.40
2022-08-19T11:03:21.621Z,38.70
2022-08-19T11:06:00.529Z,38.70
2022-08-19T11:08:29.723Z,37.90
2022-08-19T11:11:04.089Z,38.30
2022-08-19T11:13:38.324Z,38.10
2022-08-19T11:16:11.373Z,38.10
2022-08-19T11:18:44.778Z,38.40
2022-08-19T11:21:19.965Z,38.90
2022-08-19T11:23:52.180Z,38.10
2022-08-19T11:26:23.162Z,38.40
2022-08-19T11:28:55.328Z,38.70
2022-08-19T11:31:29.303Z,39.40
2022-08-19T11:34:00.654Z,39.60
2022-08-19T11:36:30.620Z,39.80
2022-08-19T11:38:59.298Z,39.30
2022-08-19T11:41:28.610Z,39.60
2022-08-19T11:43:58.772Z,40.00
2022-08-19T11:46:30.421Z,40.30
2022-08-19T11:49:00.370Z,40.80
2022-08-19T11:51:29.924Z,40.80
2022-08-19T11:54:01.110Z,40.80
2022-08-19T11:56:30.359Z,41.60
2022-08-19T11:59:03.980Z,40.80
2022-08-19T12:01:33.432Z,40.70
2022-08-19T12:04:02.631Z,41.50
2022-08-19T12:06:35.779Z,41.70
2022-08-19T12:09:09.337Z,42.30
2022-08-19T12:11:39.304Z,42.20
2022-08-19T12:14:15.139Z,42.90
2022-08-19T12:16:51.390Z,43.00
2022-08-19T12:19:22.258Z,42.20
2022-08-19T12:21:54.012Z,42.60
2022-08-19T12:24:24.484Z,42.10
2022-08-19T12:26:54.453Z,42.70
2022-08-19T12:29:29.444Z,43.10
2022-08-19T12:32:02.247Z,42.40
2022-08-19T12:34:34.630Z,42.20
2022-08-19T12:37:07.335Z,42.60
2022-08-19T12:39:43.065Z,42.30
2022-08-19T12:42:13.364Z,42.10
2022-08-19T12:44:45.942Z,42.20
2022-08-19T12:47:15.715Z,42.10
2022-08-19T12:49:54.062Z,42.20
2022-08-19T12:52:26.838Z,43.00
2022-08-19T12:54:58.247Z,42.90
2022-08-19T12:57:32.782Z,43.40
2022-08-19T13:00:11.715Z,43.90
2022-08-19T13:02:41.681Z,42.50
2022-08-19T13:05:16.831Z,43.10
2022-08-19T13:07:45.813Z,42.50
2022-08-19T13:10:18.599Z,42.80
2022-08-19T13:12:49.985Z,43.10
2022-08-19T13:15:24.469Z,43.20
2022-08-19T13:17:56.766Z,43.80
2022-08-19T13:20:27.025Z,43.10
2022-08-19T13:22:58.229Z,43.30
2022-08-19T13:25:27.649Z,43.10
2022-08-19T13:27:56.956Z,42.70
2022-08-19T13:30:44.762Z,43.00
2022-08-19T13:33:16.093Z,42.90
2022-08-19T13:35:50.133Z,42.90
2022-08-19T13:38:22.091Z,42.90
2022-08-19T13:40:53.778Z,43.20
2022-08-19T13:43:27.969Z,43.00
2022-08-19T13:45:57.996Z,42.80
2022-08-19T13:48:28.393Z,42.70
2022-08-19T13:50:57.065Z,42.70
2022-08-19T13:53:25.800Z,42.50
2022-08-19T13:55:54.981Z,42.90
2022-08-19T13:58:24.603Z,42.40
2022-08-19T14:00:53.427Z,42.70
2022-08-19T14:03:24.602Z,42.70
2022-08-19T14:05:53.300Z,42.30
2022-08-19T14:08:22.182Z,42.20
2022-08-19T14:10:51.478Z,42.70
2022-08-19T14:13:23.499Z,42.20
2022-08-19T14:15:54.135Z,42.00
2022-08-19T14:18:26.104Z,42.20
2022-08-19T14:20:57.806Z,41.30
2022-08-19T14:23:27.618Z,41.10
2022-08-19T14:26:05.531Z,41.20
2022-08-19T14:28:34.326Z,41.20
2022-08-19T14:31:02.962Z,40.90
2022-08-19T14:33:33.101Z,40.80
2022-08-19T14:36:02.552Z,41.60
2022-08-19T14:38:32.499Z,42.50
2022-08-19T14:41:14.836Z,42.20
2022-08-19T14:43:43.637Z,41.90
2022-08-19T14:46:13.652Z,42.40
2022-08-19T14:48:47.062Z,42.20
2022-08-19T14:51:21.369Z,42.00
2022-08-19T14:53:50.736Z,42.10
2022-08-19T14:56:25.818Z,43.30
2022-08-19T14:58:55.460Z,42.20
2022-08-19T15:01:24.942Z,42.50
2022-08-19T15:03:55.688Z,42.60
2022-08-19T15:06:25.872Z,42.80
2022-08-19T15:08:55.443Z,42.60
2022-08-19T15:11:28.768Z,42.70
2022-08-19T15:13:58.533Z,42.60
2022-08-19T15:16:28.765Z,42.10
2022-08-19T15:19:01.413Z,42.50
2022-08-19T15:21:31.776Z,42.20
2022-08-19T15:24:02.615Z,42.20
2022-08-19T15:26:33.385Z,41.90
2022-08-19T15:29:03.066Z,41.90
2022-08-19T15:31:35.133Z,42.00
2022-08-19T15:34:06.887Z,42.00
2022-08-19T15:36:36.262Z,41.40
2022-08-19T15:39:07.367Z,42.10
2022-08-19T15:41:37.023Z,41.20
2022-08-19T15:44:10.985Z,41.30
2022-08-19T15:46:43.841Z,41.20
2022-08-19T15:49:16.510Z,41.50
2022-08-19T15:51:49.392Z,41.70
2022-08-19T15:54:21.614Z,41.30
2022-08-19T15:57:09.648Z,42.20
2022-08-19T16:00:00.774Z,41.40
2022-08-19T16:02:53.610Z,41.80
2022-08-19T16:05:45.899Z,41.70
2022-08-19T16:08:15.514Z,42.10
2022-08-19T16:10:44.251Z,42.10
2022-08-19T16:13:12.803Z,42.10
2022-08-19T16:15:42.018Z,42.10
2022-08-19T16:18:10.627Z,42.20
2022-08-19T16:20:40.524Z,42.10
2022-08-19T16:23:09.380Z,42.30
2022-08-19T16:25:39.408Z,42.30
2022-08-19T16:28:09.903Z,42.50
2022-08-19T16:30:41.796Z,42.40
2022-08-19T16:33:11.757Z,42.40
2022-08-19T16:35:42.109Z,42.40
2022-08-19T16:38:11.564Z,42.70
2022-08-19T16:40:43.757Z,42.50
2022-08-19T16:43:15.152Z,42.70
2022-08-19T16:45:44.097Z,42.80
2022-08-19T16:48:12.780Z,43.00
2022-08-19T16:50:49.608Z,43.30
2022-08-19T16:53:21.308Z,43.20
2022-08-19T16:55:57.578Z,43.30
2022-08-19T16:58:29.185Z,43.40
2022-08-19T17:01:03.893Z,43.40
2022-08-19T17:03:36.408Z,43.70
2022-08-19T17:06:18.412Z,43.40
2022-08-19T17:08:51.089Z,43.40
2022-08-19T17:11:22.568Z,43.70
2022-08-19T17:13:51.804Z,43.60
2022-08-19T17:16:25.551Z,43.70
2022-08-19T17:18:55.749Z,44.00
2022-08-19T17:21:29.409Z,44.00
2022-08-19T17:23:59.039Z,43.80
2022-08-19T17:26:30.305Z,44.10
2022-08-19T17:29:00.603Z,44.10
2022-08-19T17:31:32.789Z,44.00
2022-08-19T17:34:01.607Z,44.00
2022-08-19T17:36:35.225Z,44.30
2022-08-19T17:39:05.625Z,44.40
2022-08-19T17:41:35.275Z,44.10
2022-08-19T17:44:05.157Z,44.30
2022-08-19T17:46:34.003Z,44.40
2022-08-19T17:49:02.882Z,44.60
2022-08-19T17:51:46.155Z,44.80
2022-08-19T17:54:19.268Z,44.50
2022-08-19T17:56:48.801Z,44.70
2022-08-19T17:59:17.649Z,44.70
2022-08-19T18:01:53.065Z,44.70
2022-08-19T18:04:25.728Z,44.70
2022-08-19T18:06:56.165Z,44.80
2022-08-19T18:09:27.036Z,45.00
2022-08-19T18:11:58.007Z,45.00
2022-08-19T18:14:34.091Z,45.10
2022-08-19T18:17:09.651Z,45.30
2022-08-19T18:19:43.311Z,45.10
2022-08-19T18:22:25.326Z,45.20
2022-08-19T18:24:54.747Z,45.30
2022-08-19T18:27:23.812Z,45.20
2022-08-19T18:29:52.482Z,45.60
2022-08-19T18:32:24.070Z,45.50
2022-08-19T18:34:54.065Z,45.70
2022-08-19T18:37:26.367Z,45.70
2022-08-19T18:40:12.362Z,45.90
2022-08-19T18:43:02.051Z,45.70
2022-08-19T18:45:48.883Z,45.80
2022-08-19T18:48:35.487Z,46.00
2022-08-19T18:51:04.918Z,46.00
2022-08-19T18:53:38.931Z,46.00
2022-08-19T18:56:10.081Z,46.00
2022-08-19T18:58:40.172Z,46.10
2022-08-19T19:01:14.872Z,46.30
2022-08-19T19:03:49.116Z,46.40
2022-08-19T19:06:22.523Z,46.40
2022-08-19T19:08:54.971Z,46.50
2022-08-19T19:11:27.876Z,46.90
2022-08-19T19:13:57.765Z,46.60
2022-08-19T19:16:26.445Z,46.60
2022-08-19T19:18:55.653Z,46.60
2022-08-19T19:21:30.792Z,46.90
2022-08-19T19:24:03.049Z,46.80
2022-08-19T19:26:31.931Z,46.90
2022-08-19T19:29:00.549Z,46.80
2022-08-19T19:31:29.229Z,47.10
2022-08-19T19:33:58.213Z,47.30
2022-08-19T19:36:27.420Z,47.40
2022-08-19T19:38:55.979Z,47.40
2022-08-19T19:41:26.323Z,47.50
2022-08-19T19:44:29.459Z,47.60
2022-08-19T19:46:48.214Z,47.90
2022-08-19T19:49:16.865Z,47.70
2022-08-19T19:51:45.405Z,47.80
2022-08-19T19:54:14.831Z,48.00
2022-08-19T19:56:45.442Z,48.20
2022-08-19T19:59:14.661Z,48.20
2022-08-19T20:01:46.124Z,48.30
2022-08-19T20:04:17.772Z,48.40
2022-08-19T20:06:47.933Z,48.30
2022-08-19T20:09:19.931Z,48.60
2022-08-19T20:11:54.361Z,48.70
2022-08-19T20:14:28.681Z,48.70
2022-08-19T20:17:00.049Z,48.60
2022-08-19T20:19:34.237Z,48.70
2022-08-19T20:22:04.247Z,48.70
2022-08-19T20:24:36.538Z,48.80
2022-08-19T20:27:07.184Z,48.70
2022-08-19T20:29:39.148Z,48.80
2022-08-19T20:32:10.102Z,48.80
2022-08-19T20:34:40.250Z,48.80
2022-08-19T20:37:09.871Z,48.90
2022-08-19T20:39:39.172Z,49.00
2022-08-19T20:42:09.277Z,49.10
2022-08-19T20:44:38.128Z,48.90
2022-08-19T20:47:07.465Z,49.00
2022-08-19T20:49:36.272Z,48.90
2022-08-19T20:52:06.569Z,49.10
2022-08-19T20:54:35.700Z,49.00
2022-08-19T20:57:05.495Z,49.10
2022-08-19T20:59:37.209Z,49.20
2022-08-19T21:02:06.304Z,49.10
2022-08-19T21:04:34.922Z,49.00
2022-08-19T21:07:03.507Z,49.00
2022-08-19T21:09:32.240Z,49.00
2022-08-19T21:12:01.065Z,48.90
2022-08-19T21:14:29.738Z,49.00
2022-08-19T21:16:59.877Z,48.90
2022-08-19T21:19:28.532Z,49.00
2022-08-19T21:21:57.132Z,48.90
2022-08-19T21:24:30.185Z,48.90
2022-08-19T21:27:00.906Z,48.70
2022-08-19T21:29:32.089Z,48.90
2022-08-19T21:32:02.015Z,49.60
2022-08-19T21:34:30.936Z,48.90
2022-08-19T21:36:59.522Z,48.90
2022-08-19T21:39:28.811Z,49.20
2022-08-19T21:41:57.631Z,49.10
2022-08-19T21:44:26.243Z,49.30
2022-08-19T21:46:54.789Z,49.30
2022-08-19T21:49:24.997Z,49.40
2022-08-19T21:51:53.573Z,49.30
2022-08-19T21:54:22.128Z,49.40
2022-08-19T21:56:50.880Z,49.40
2022-08-19T21:59:21.946Z,49.40
2022-08-19T22:02:05.615Z,49.40
2022-08-19T22:04:42.403Z,49.20
2022-08-19T22:07:14.180Z,49.40
2022-08-19T22:09:45.213Z,49.40
2022-08-19T22:12:25.550Z,49.40
2022-08-19T22:14:55.634Z,49.40
2022-08-19T22:17:27.459Z,49.30
2022-08-19T22:19:58.585Z,49.10
2022-08-19T22:22:31.896Z,49.30
2022-08-19T22:25:06.734Z,49.40
2022-08-19T22:27:36.492Z,49.30
2022-08-19T22:30:10.037Z,49.30
2022-08-19T22:32:39.711Z,49.50
2022-08-19T22:35:10.343Z,49.50
2022-08-19T22:37:38.919Z,49.50
2022-08-19T22:40:09.509Z,49.40
2022-08-19T22:42:38.889Z,49.70
2022-08-19T22:45:11.046Z,49.60
2022-08-19T22:47:40.952Z,49.70
2022-08-19T22:50:13.910Z,49.70
2022-08-19T22:52:51.936Z,49.60
2022-08-19T22:55:20.876Z,49.50
2022-08-19T22:57:49.658Z,49.50
2022-08-19T23:00:18.258Z,49.40
2022-08-19T23:02:51.405Z,49.40
2022-08-19T23:05:26.148Z,49.40
2022-08-19T23:07:58.245Z,49.60
2022-08-19T23:10:29.061Z,49.30
2022-08-19T23:13:00.600Z,49.40
2022-08-19T23:15:34.272Z,49.40
2022-08-19T23:18:05.570Z,49.20
2022-08-19T23:20:39.287Z,49.20
2022-08-19T23:23:12.091Z,49.70
2022-08-19T23:25:42.958Z,50.60
2022-08-19T23:28:28.956Z,51.50
2022-08-19T23:30:57.744Z,51.80
2022-08-19T23:33:39.761Z,52.30
2022-08-19T23:36:23.386Z,52.50
2022-08-19T23:38:53.050Z,52.30
2022-08-19T23:41:24.214Z,52.10
2022-08-19T23:43:55.052Z,51.70
2022-08-19T23:46:28.264Z,51.80
2022-08-19T23:48:57.416Z,51.80
2022-08-19T23:51:27.511Z,51.60
2022-08-19T23:53:56.135Z,51.70
2022-08-19T23:56:24.736Z,51.80
2022-08-19T23:58:53.524Z,52.30
